createdAt,value
2018-10-04T00:00:12.609Z,6.07
2018-10-04T00:02:41.715Z,6.10
2018-10-04T00:05:13.215Z,6.18
2018-10-04T00:07:43.181Z,6.17
2018-10-04T00:10:12.295Z,5.99
2018-10-04T00:12:41.086Z,5.79
2018-10-04T00:15:10.216Z,5.70
2018-10-04T00:17:39.495Z,5.76
2018-10-04T00:20:10.275Z,5.83
2018-10-04T00:22:39.376Z,5.88
2018-10-04T00:25:08.733Z,5.79
2018-10-04T00:27:37.974Z,5.67
2018-10-04T00:30:07.421Z,5.57
2018-10-04T00:32:36.611Z,5.58
2018-10-04T00:35:05.823Z,5.51
2018-10-04T00:37:35.502Z,5.41
2018-10-04T00:40:04.822Z,5.27
2018-10-04T00:42:34.021Z,5.19
2018-10-04T00:45:03.247Z,5.18
2018-10-04T00:47:32.463Z,5.41
2018-10-04T00:50:02.658Z,5.51
2018-10-04T00:52:31.771Z,5.35
2018-10-04T00:55:00.942Z,5.34
2018-10-04T00:57:30.602Z,5.53
2018-10-04T00:59:59.882Z,5.65
2018-10-04T01:02:28.991Z,5.59
2018-10-04T01:04:58.233Z,5.45
2018-10-04T01:07:27.359Z,5.26
2018-10-04T01:09:56.494Z,5.30
2018-10-04T01:12:26.215Z,5.35
2018-10-04T01:14:55.334Z,5.48
2018-10-04T01:17:24.457Z,5.54
2018-10-04T01:19:53.591Z,5.54
2018-10-04T01:22:22.706Z,5.34
2018-10-04T01:24:51.906Z,5.38
2018-10-04T01:27:22.414Z,5.40
2018-10-04T01:29:51.584Z,5.44
2018-10-04T01:32:20.687Z,5.21
2018-10-04T01:34:49.852Z,5.17
2018-10-04T01:37:20.125Z,5.10
2018-10-04T01:39:49.354Z,5.07
2018-10-04T01:42:18.606Z,5.15
2018-10-04T01:44:48.438Z,5.19
2018-10-04T01:47:17.649Z,5.11
2018-10-04T01:49:46.895Z,5.03
2018-10-04T01:52:17.171Z,5.07
2018-10-04T01:54:46.327Z,5.13
2018-10-04T01:57:15.470Z,5.27
2018-10-04T01:59:44.610Z,5.13
2018-10-04T02:02:13.735Z,4.92
2018-10-04T02:04:42.929Z,4.97
2018-10-04T02:07:12.056Z,4.84
2018-10-04T02:09:41.171Z,4.85
2018-10-04T02:12:10.324Z,4.69
2018-10-04T02:14:40.175Z,4.56
2018-10-04T02:17:09.286Z,4.71
2018-10-04T02:19:38.402Z,4.82
2018-10-04T02:22:07.509Z,4.93
2018-10-04T02:24:36.629Z,5.00
2018-10-04T02:27:06.280Z,4.93
2018-10-04T02:29:35.402Z,4.96
2018-10-04T02:32:04.499Z,4.81
2018-10-04T02:34:33.646Z,4.59
2018-10-04T02:37:02.919Z,4.51
2018-10-04T02:39:32.204Z,4.68
2018-10-04T02:42:01.540Z,4.62
2018-10-04T02:44:30.977Z,4.55
2018-10-04T02:47:00.731Z,4.77
2018-10-04T02:49:30.524Z,4.72
2018-10-04T02:51:59.751Z,4.56
2018-10-04T02:54:29.036Z,4.39
2018-10-04T02:57:03.795Z,4.39
2018-10-04T02:59:32.936Z,4.65
2018-10-04T03:02:03.978Z,4.78
2018-10-04T03:04:33.151Z,5.09
2018-10-04T03:07:02.307Z,5.27
2018-10-04T03:09:31.743Z,5.43
2018-10-04T03:12:00.875Z,5.62
2018-10-04T03:14:30.019Z,5.65
2018-10-04T03:16:59.212Z,5.68
2018-10-04T03:19:28.357Z,5.70
2018-10-04T03:21:58.827Z,5.78
2018-10-04T03:24:28.007Z,5.87
2018-10-04T03:26:57.177Z,5.93
2018-10-04T03:29:26.326Z,5.97
2018-10-04T03:31:59.304Z,5.93
2018-10-04T03:34:29.239Z,5.96
2018-10-04T03:36:58.523Z,5.90
2018-10-04T03:39:28.299Z,5.85
2018-10-04T03:41:57.530Z,5.79
2018-10-04T03:44:26.902Z,5.69
2018-10-04T03:46:56.366Z,5.68
2018-10-04T03:49:26.235Z,5.67
2018-10-04T03:51:55.390Z,5.36
2018-10-04T03:54:24.527Z,5.19
2018-10-04T03:56:54.054Z,5.18
2018-10-04T03:59:23.217Z,5.18
2018-10-04T04:01:52.358Z,5.09
2018-10-04T04:04:21.634Z,5.17
2018-10-04T04:06:50.770Z,5.26
2018-10-04T04:09:19.931Z,5.29
2018-10-04T04:11:49.123Z,5.24
2018-10-04T04:14:18.283Z,5.34
2018-10-04T04:16:47.431Z,5.45
2018-10-04T04:19:16.946Z,5.57
2018-10-04T04:21:46.174Z,5.81
2018-10-04T04:24:16.088Z,5.96
2018-10-04T04:26:45.259Z,6.11
2018-10-04T04:29:14.446Z,6.15
2018-10-04T04:31:43.627Z,6.00
2018-10-04T04:34:12.783Z,6.06
2018-10-04T04:36:42.049Z,6.08
2018-10-04T04:39:11.564Z,6.08
2018-10-04T04:41:40.349Z,6.01
2018-10-04T04:44:09.534Z,6.09
2018-10-04T04:46:38.836Z,6.16
2018-10-04T04:49:08.315Z,6.19
2018-10-04T04:51:37.663Z,6.27
2018-10-04T04:54:06.815Z,6.36
2018-10-04T04:56:35.995Z,6.44
2018-10-04T04:59:05.155Z,6.36
2018-10-04T05:01:34.328Z,6.35
2018-10-04T05:04:03.454Z,6.27
2018-10-04T05:06:32.661Z,6.37
2018-10-04T05:09:01.743Z,6.33
2018-10-04T05:11:30.902Z,6.19
2018-10-04T05:14:00.054Z,6.15
2018-10-04T05:16:29.574Z,6.10
2018-10-04T05:18:58.746Z,6.16
2018-10-04T05:21:27.902Z,6.25
2018-10-04T05:23:57.236Z,6.34
2018-10-04T05:26:26.022Z,6.47
2018-10-04T05:28:55.225Z,6.58
2018-10-04T05:31:24.374Z,6.70
2018-10-04T05:33:53.564Z,6.78
2018-10-04T05:36:22.831Z,6.83
2018-10-04T05:38:51.704Z,6.87
2018-10-04T05:41:20.895Z,6.89
2018-10-04T05:43:50.142Z,6.87
2018-10-04T05:46:19.406Z,6.73
2018-10-04T05:48:48.537Z,6.77
2018-10-04T05:51:17.787Z,6.71
2018-10-04T05:53:48.445Z,6.88
2018-10-04T05:56:17.627Z,7.08
2018-10-04T05:58:46.748Z,7.23
2018-10-04T06:01:15.994Z,6.84
2018-10-04T06:03:46.186Z,6.76
2018-10-04T06:06:15.514Z,6.96
2018-10-04T06:08:44.738Z,7.08
2018-10-04T06:11:14.188Z,7.11
2018-10-04T06:13:43.675Z,7.16
2018-10-04T06:16:13.255Z,7.32
2018-10-04T06:18:42.437Z,7.26
2018-10-04T06:21:11.574Z,7.28
2018-10-04T06:23:40.845Z,7.45
2018-10-04T06:26:10.071Z,7.72
2018-10-04T06:28:39.869Z,7.72
2018-10-04T06:31:09.018Z,7.92
2018-10-04T06:33:38.443Z,7.94
2018-10-04T06:36:07.658Z,7.96
2018-10-04T06:38:37.042Z,8.04
2018-10-04T06:41:07.407Z,8.15
2018-10-04T06:43:37.026Z,8.30
2018-10-04T06:46:07.034Z,8.45
2018-10-04T06:48:36.474Z,8.50
2018-10-04T06:51:06.293Z,8.50
2018-10-04T06:53:36.224Z,8.68
2018-10-04T06:56:05.371Z,8.76
2018-10-04T06:58:34.563Z,8.91
2018-10-04T07:01:03.721Z,8.93
2018-10-04T07:03:32.946Z,8.79
2018-10-04T07:06:02.081Z,8.86
2018-10-04T07:08:32.010Z,8.91
2018-10-04T07:11:01.719Z,8.85
2018-10-04T07:13:30.939Z,8.92
2018-10-04T07:16:00.116Z,8.78
2018-10-04T07:18:30.043Z,8.87
2018-10-04T07:20:59.415Z,8.97
2018-10-04T07:23:28.762Z,8.92
2018-10-04T07:25:58.313Z,9.11
2018-10-04T07:28:27.454Z,9.28
2018-10-04T07:30:56.651Z,9.43
2018-10-04T07:33:25.894Z,9.46
2018-10-04T07:35:55.029Z,9.90
2018-10-04T07:38:24.203Z,9.75
2018-10-04T07:40:53.372Z,10.18
2018-10-04T07:43:22.539Z,9.69
2018-10-04T07:45:52.031Z,9.97
2018-10-04T07:48:21.167Z,10.32
2018-10-04T07:50:50.335Z,9.99
2018-10-04T07:53:19.509Z,10.39
2018-10-04T07:55:49.118Z,10.49
2018-10-04T07:58:18.616Z,10.35
2018-10-04T08:00:47.643Z,10.99
2018-10-04T08:03:16.793Z,10.99
2018-10-04T08:05:45.976Z,11.50
2018-10-04T08:08:15.109Z,11.55
2018-10-04T08:10:44.238Z,11.34
2018-10-04T08:13:13.395Z,11.65
2018-10-04T08:15:42.538Z,11.78
2018-10-04T08:18:11.679Z,11.91
2018-10-04T08:20:40.850Z,11.94
2018-10-04T08:23:10.635Z,12.23
2018-10-04T08:25:39.646Z,12.73
2018-10-04T08:28:08.910Z,12.86
2018-10-04T08:30:38.338Z,12.68
2018-10-04T08:33:07.867Z,12.78
2018-10-04T08:35:37.504Z,13.51
2018-10-04T08:38:06.957Z,13.38
2018-10-04T08:40:37.125Z,13.92
2018-10-04T08:43:06.897Z,13.68
2018-10-04T08:45:35.742Z,14.27
2018-10-04T08:48:06.812Z,15.21
2018-10-04T08:50:36.090Z,16.78
2018-10-04T08:53:05.635Z,16.83
2018-10-04T08:55:36.995Z,16.18
2018-10-04T08:58:07.116Z,15.57
2018-10-04T09:00:41.410Z,14.92
2018-10-04T09:03:11.750Z,15.35
2018-10-04T09:05:41.182Z,15.06
2018-10-04T09:08:10.664Z,14.27
2018-10-04T09:10:39.826Z,14.86
2018-10-04T09:13:09.007Z,18.54
2018-10-04T09:15:38.155Z,21.79
2018-10-04T09:18:07.294Z,21.38
2018-10-04T09:20:36.461Z,21.38
2018-10-04T09:23:05.315Z,23.04
2018-10-04T09:25:34.597Z,22.95
2018-10-04T09:28:03.565Z,22.72
2018-10-04T09:30:37.996Z,25.46
2018-10-04T09:33:07.355Z,26.79
2018-10-04T09:35:36.679Z,27.90
2018-10-04T09:38:08.055Z,31.09
2018-10-04T09:40:37.855Z,32.77
2018-10-04T09:43:07.142Z,32.23
2018-10-04T09:45:39.846Z,31.02
2018-10-04T09:48:12.681Z,31.04
2018-10-04T09:50:41.927Z,29.74
2018-10-04T09:53:12.123Z,29.35
2018-10-04T09:55:47.493Z,30.28
2018-10-04T09:58:17.372Z,32.47
2018-10-04T10:00:51.782Z,33.06
2018-10-04T10:03:21.179Z,34.39
2018-10-04T10:05:50.687Z,35.45
2018-10-04T10:08:20.151Z,33.73
2018-10-04T10:10:49.506Z,32.38
2018-10-04T10:13:18.674Z,34.43
2018-10-04T10:15:47.912Z,33.63
2018-10-04T10:18:18.110Z,31.62
2018-10-04T10:20:47.278Z,34.33
2018-10-04T10:23:16.391Z,32.01
2018-10-04T10:25:45.539Z,34.43
2018-10-04T10:28:16.243Z,35.83
2018-10-04T10:30:45.795Z,35.11
2018-10-04T10:33:14.629Z,35.54
2018-10-04T10:35:43.779Z,36.87
2018-10-04T10:38:12.903Z,36.39
2018-10-04T10:40:42.143Z,36.87
2018-10-04T10:43:16.458Z,37.29
2018-10-04T10:45:45.590Z,37.00
2018-10-04T10:48:15.463Z,38.94
2018-10-04T10:50:44.626Z,37.63
2018-10-04T10:53:14.078Z,34.20
2018-10-04T10:55:44.463Z,34.85
2018-10-04T10:58:14.270Z,32.85
2018-10-04T11:00:43.435Z,32.01
2018-10-04T11:03:12.565Z,31.23
2018-10-04T11:05:44.494Z,33.55
2018-10-04T11:08:13.708Z,32.47
2018-10-04T11:10:42.870Z,31.11
2018-10-04T11:13:12.210Z,25.39
2018-10-04T11:15:42.168Z,26.83
2018-10-04T11:18:11.861Z,29.23
2018-10-04T11:20:42.015Z,28.87
2018-10-04T11:23:13.552Z,26.73
2018-10-04T11:25:42.837Z,30.97
2018-10-04T11:28:12.970Z,33.38
2018-10-04T11:30:42.248Z,30.88
2018-10-04T11:33:11.761Z,34.13
2018-10-04T11:35:41.387Z,32.16
2018-10-04T11:38:10.965Z,29.38
2018-10-04T11:40:40.091Z,31.41
2018-10-04T11:43:10.714Z,33.08
2018-10-04T11:45:41.734Z,34.79
2018-10-04T11:48:14.615Z,36.91
2018-10-04T11:50:43.846Z,36.41
2018-10-04T11:53:12.976Z,34.86
2018-10-04T11:55:42.095Z,32.38
2018-10-04T11:58:11.264Z,32.27
2018-10-04T12:00:40.394Z,33.21
2018-10-04T12:03:09.559Z,33.52
2018-10-04T12:05:38.701Z,32.28
2018-10-04T12:08:07.855Z,32.11
2018-10-04T12:10:37.682Z,32.37
2018-10-04T12:13:06.962Z,35.20
2018-10-04T12:15:36.702Z,37.35
2018-10-04T12:18:05.826Z,34.43
2018-10-04T12:20:35.712Z,33.78
2018-10-04T12:23:05.064Z,31.90
2018-10-04T12:25:34.209Z,32.08
2018-10-04T12:28:03.632Z,32.44
2018-10-04T12:30:32.925Z,34.78
2018-10-04T12:33:02.914Z,35.79
2018-10-04T12:35:33.165Z,32.78
2018-10-04T12:38:02.603Z,31.08
2018-10-04T12:40:31.727Z,33.09
2018-10-04T12:43:00.866Z,31.06
2018-10-04T12:45:30.006Z,26.54
2018-10-04T12:47:59.160Z,23.24
2018-10-04T12:50:28.295Z,20.81
2018-10-04T12:52:57.502Z,19.89
2018-10-04T12:55:27.222Z,19.14
2018-10-04T12:57:56.501Z,18.36
2018-10-04T13:00:25.727Z,18.52
2018-10-04T13:02:54.950Z,18.45
2018-10-04T13:05:24.192Z,18.22
2018-10-04T13:07:53.787Z,18.23
2018-10-04T13:10:23.023Z,18.22
2018-10-04T13:12:52.208Z,18.21
2018-10-04T13:15:21.367Z,18.09
2018-10-04T13:17:50.501Z,18.21
2018-10-04T13:20:19.829Z,18.07
2018-10-04T13:22:48.866Z,18.08
2018-10-04T13:25:18.008Z,18.28
2018-10-04T13:27:47.205Z,18.46
2018-10-04T13:30:16.462Z,18.48
2018-10-04T13:32:45.626Z,18.25
2018-10-04T13:35:14.751Z,18.03
2018-10-04T13:37:44.073Z,18.08
2018-10-04T13:40:13.678Z,18.12
2018-10-04T13:42:42.795Z,18.08
2018-10-04T13:45:12.411Z,18.21
2018-10-04T13:47:49.503Z,18.24
2018-10-04T13:50:18.675Z,18.31
2018-10-04T13:52:47.487Z,18.46
2018-10-04T13:55:16.656Z,18.48
2018-10-04T13:57:45.813Z,18.50
2018-10-04T14:00:14.941Z,18.51
2018-10-04T14:02:44.275Z,18.43
2018-10-04T14:05:13.363Z,18.51
2018-10-04T14:07:42.514Z,18.49
2018-10-04T14:10:11.702Z,18.54
2018-10-04T14:12:40.886Z,18.57
2018-10-04T14:15:10.955Z,18.64
2018-10-04T14:17:40.183Z,18.73
2018-10-04T14:20:09.306Z,18.73
2018-10-04T14:22:38.507Z,18.60
2018-10-04T14:25:07.981Z,18.45
2018-10-04T14:27:37.126Z,18.46
2018-10-04T14:30:06.555Z,18.35
2018-10-04T14:32:35.814Z,18.34
2018-10-04T14:35:04.900Z,18.31
2018-10-04T14:37:34.075Z,18.23
2018-10-04T14:40:03.180Z,18.16
2018-10-04T14:42:32.977Z,18.18
2018-10-04T14:45:02.060Z,18.29
2018-10-04T14:47:31.173Z,18.25
2018-10-04T14:50:00.491Z,18.24
2018-10-04T14:52:29.655Z,18.18
2018-10-04T14:55:01.041Z,18.12
2018-10-04T14:57:30.294Z,18.07
2018-10-04T14:59:59.981Z,18.04
2018-10-04T15:02:29.378Z,18.01
2018-10-04T15:04:59.136Z,17.95
2018-10-04T15:07:28.406Z,18.11
2018-10-04T15:09:57.902Z,18.17
2018-10-04T15:12:27.318Z,18.10
2018-10-04T15:14:57.949Z,18.09
2018-10-04T15:17:27.326Z,17.97
2018-10-04T15:19:56.603Z,18.00
2018-10-04T15:22:26.066Z,17.96
2018-10-04T15:24:55.358Z,17.83
2018-10-04T15:27:24.603Z,17.94
2018-10-04T15:29:54.170Z,17.84
2018-10-04T15:32:23.443Z,17.74
2018-10-04T15:34:52.701Z,17.74
2018-10-04T15:37:22.254Z,17.72
2018-10-04T15:39:52.143Z,17.64
2018-10-04T15:42:22.871Z,17.48
2018-10-04T15:44:53.198Z,17.49
2018-10-04T15:47:22.728Z,17.42
2018-10-04T15:49:51.953Z,17.53
2018-10-04T15:52:21.563Z,17.51
2018-10-04T15:54:52.611Z,17.40
2018-10-04T15:57:22.123Z,17.36
2018-10-04T15:59:51.266Z,17.38
2018-10-04T16:02:20.485Z,17.20
2018-10-04T16:04:50.132Z,17.05
2018-10-04T16:07:19.506Z,17.01
2018-10-04T16:09:48.906Z,16.86
2018-10-04T16:12:19.125Z,16.77
2018-10-04T16:14:49.335Z,16.69
2018-10-04T16:17:19.162Z,16.57
2018-10-04T16:19:49.995Z,16.49
2018-10-04T16:22:21.566Z,16.43
2018-10-04T16:24:51.368Z,16.31
2018-10-04T16:27:24.902Z,16.28
2018-10-04T16:29:54.159Z,16.32
2018-10-04T16:32:23.642Z,16.22
2018-10-04T16:34:53.564Z,15.81
2018-10-04T16:37:23.651Z,15.57
2018-10-04T16:39:54.788Z,15.73
2018-10-04T16:42:29.088Z,15.64
2018-10-04T16:44:58.409Z,15.46
2018-10-04T16:47:27.806Z,15.40
2018-10-04T16:49:57.313Z,15.27
2018-10-04T16:52:26.165Z,15.04
2018-10-04T16:55:09.703Z,14.74
2018-10-04T16:57:39.260Z,14.59
2018-10-04T17:00:09.118Z,14.46
2018-10-04T17:02:39.029Z,14.30
2018-10-04T17:05:11.019Z,14.29
2018-10-04T17:07:40.383Z,14.04
2018-10-04T17:10:09.246Z,13.89
2018-10-04T17:12:38.407Z,13.73
2018-10-04T17:15:08.205Z,13.52
2018-10-04T17:17:37.463Z,13.35
2018-10-04T17:20:07.518Z,13.30
2018-10-04T17:22:36.773Z,13.22
2018-10-04T17:25:06.543Z,13.14
2018-10-04T17:27:35.762Z,12.88
2018-10-04T17:30:04.909Z,12.82
2018-10-04T17:32:34.256Z,12.76
2018-10-04T17:35:03.392Z,12.74
2018-10-04T17:37:32.506Z,12.71
2018-10-04T17:40:01.744Z,12.98
2018-10-04T17:42:31.392Z,13.13
2018-10-04T17:45:00.298Z,13.06
2018-10-04T17:47:29.937Z,12.83
2018-10-04T17:49:59.649Z,12.94
2018-10-04T17:52:28.402Z,12.90
2018-10-04T17:54:57.618Z,12.60
2018-10-04T17:57:26.834Z,12.72
2018-10-04T17:59:55.995Z,12.93
2018-10-04T18:02:25.137Z,13.22
2018-10-04T18:04:54.346Z,13.25
2018-10-04T18:07:23.508Z,12.78
2018-10-04T18:09:52.698Z,12.55
2018-10-04T18:12:21.904Z,12.43
2018-10-04T18:14:51.063Z,12.33
2018-10-04T18:17:20.305Z,12.04
2018-10-04T18:19:49.374Z,11.96
2018-10-04T18:22:18.514Z,11.67
2018-10-04T18:24:47.702Z,11.58
2018-10-04T18:27:16.839Z,11.68
2018-10-04T18:29:46.425Z,11.88
2018-10-04T18:32:15.844Z,11.81
2018-10-04T18:34:45.002Z,11.88
2018-10-04T18:37:14.126Z,12.07
2018-10-04T18:39:43.859Z,12.18
2018-10-04T18:42:12.987Z,11.95
2018-10-04T18:44:42.198Z,11.71
2018-10-04T18:47:11.436Z,11.48
2018-10-04T18:49:42.539Z,11.27
2018-10-04T18:52:19.531Z,11.15
2018-10-04T18:54:48.850Z,11.13
2018-10-04T18:57:18.222Z,11.20
2018-10-04T18:59:48.245Z,11.20
2018-10-04T19:02:17.342Z,11.10
2018-10-04T19:04:46.463Z,10.87
2018-10-04T19:07:15.678Z,10.63
2018-10-04T19:09:44.798Z,10.36
2018-10-04T19:12:13.939Z,10.19
2018-10-04T19:14:43.334Z,10.27
2018-10-04T19:17:12.530Z,10.29
2018-10-04T19:19:41.771Z,10.19
2018-10-04T19:22:10.898Z,10.01
2018-10-04T19:24:40.083Z,9.90
2018-10-04T19:27:09.854Z,9.85
2018-10-04T19:29:39.010Z,9.90
2018-10-04T19:32:08.127Z,9.90
2018-10-04T19:34:39.262Z,9.87
2018-10-04T19:37:08.439Z,9.71
2018-10-04T19:39:37.866Z,9.57
2018-10-04T19:42:07.934Z,9.55
2018-10-04T19:44:37.100Z,9.55
2018-10-04T19:47:06.527Z,9.53
2018-10-04T19:49:35.890Z,9.47
2018-10-04T19:52:05.332Z,9.46
2018-10-04T19:54:34.966Z,9.39
2018-10-04T19:57:05.442Z,9.35
2018-10-04T19:59:34.813Z,9.58
2018-10-04T20:02:04.703Z,9.53
2018-10-04T20:04:35.366Z,9.70
2018-10-04T20:07:05.131Z,9.83
2018-10-04T20:09:34.938Z,9.91
2018-10-04T20:12:04.334Z,9.82
2018-10-04T20:14:33.614Z,9.57
2018-10-04T20:17:02.806Z,9.20
2018-10-04T20:19:32.189Z,9.17
2018-10-04T20:22:01.341Z,9.30
2018-10-04T20:24:30.481Z,9.22
2018-10-04T20:26:59.609Z,9.15
2018-10-04T20:29:28.754Z,8.93
2018-10-04T20:31:57.886Z,8.77
2018-10-04T20:34:30.153Z,8.73
2018-10-04T20:36:59.679Z,8.92
2018-10-04T20:39:29.421Z,8.81
2018-10-04T20:41:59.198Z,8.66
2018-10-04T20:44:29.103Z,8.54
2018-10-04T20:46:58.408Z,8.53
2018-10-04T20:49:27.607Z,8.63
2018-10-04T20:51:56.800Z,8.50
2018-10-04T20:54:26.049Z,8.21
2018-10-04T20:56:55.194Z,8.08
2018-10-04T20:59:24.387Z,8.12
2018-10-04T21:01:53.548Z,8.03
2018-10-04T21:04:22.646Z,7.90
2018-10-04T21:06:51.803Z,7.86
2018-10-04T21:09:21.751Z,7.90
2018-10-04T21:11:51.362Z,7.93
2018-10-04T21:14:20.943Z,7.94
2018-10-04T21:16:50.654Z,8.02
2018-10-04T21:19:20.440Z,8.01
2018-10-04T21:21:49.316Z,8.09
2018-10-04T21:24:19.563Z,8.02
2018-10-04T21:26:49.393Z,7.92
2018-10-04T21:29:18.545Z,7.73
2018-10-04T21:31:48.369Z,7.64
2018-10-04T21:34:18.399Z,7.56
2018-10-04T21:36:48.927Z,7.63
2018-10-04T21:39:18.058Z,7.64
2018-10-04T21:41:48.156Z,7.59
2018-10-04T21:44:17.650Z,7.41
2018-10-04T21:46:47.116Z,7.34
2018-10-04T21:49:16.693Z,7.29
2018-10-04T21:51:46.170Z,7.19
2018-10-04T21:54:17.689Z,7.23
2018-10-04T21:56:48.519Z,7.24
2018-10-04T21:59:19.113Z,7.23
2018-10-04T22:01:49.178Z,7.29
2018-10-04T22:04:17.901Z,7.26
2018-10-04T22:06:47.094Z,6.92
2018-10-04T22:09:16.347Z,6.73
2018-10-04T22:11:45.682Z,6.58
2018-10-04T22:14:15.345Z,6.75
2018-10-04T22:16:44.552Z,6.79
2018-10-04T22:19:13.798Z,6.80
2018-10-04T22:21:42.922Z,6.72
2018-10-04T22:24:12.103Z,6.88
2018-10-04T22:26:41.371Z,6.94
2018-10-04T22:29:10.579Z,6.74
2018-10-04T22:31:39.710Z,6.57
2018-10-04T22:34:08.842Z,6.53
2018-10-04T22:36:38.821Z,6.61
2018-10-04T22:39:08.197Z,6.66
2018-10-04T22:41:38.258Z,6.66
2018-10-04T22:44:07.595Z,6.65
2018-10-04T22:46:36.938Z,6.49
2018-10-04T22:49:06.950Z,6.46
2018-10-04T22:51:36.230Z,6.44
2018-10-04T22:54:06.003Z,6.44
2018-10-04T22:56:35.631Z,6.33
2018-10-04T22:59:04.910Z,6.12
2018-10-04T23:01:34.178Z,6.00
2018-10-04T23:04:03.547Z,5.86
2018-10-04T23:06:34.562Z,5.68
2018-10-04T23:09:06.276Z,5.80
2018-10-04T23:11:36.075Z,6.02
2018-10-04T23:14:05.388Z,6.15
2018-10-04T23:16:34.641Z,6.18
2018-10-04T23:19:03.898Z,6.16
2018-10-04T23:21:35.346Z,6.11
2018-10-04T23:24:09.794Z,6.18
2018-10-04T23:26:39.685Z,6.24
2018-10-04T23:29:08.921Z,6.13
2018-10-04T23:31:37.638Z,6.02
2018-10-04T23:34:06.786Z,5.91
2018-10-04T23:36:35.974Z,5.76
2018-10-04T23:39:10.202Z,5.56
2018-10-04T23:41:41.514Z,5.41
2018-10-04T23:44:10.990Z,5.38
2018-10-04T23:46:40.166Z,5.21
2018-10-04T23:49:09.377Z,5.24
2018-10-04T23:51:38.563Z,5.11
2018-10-04T23:54:08.154Z,5.31
2018-10-04T23:56:37.963Z,5.40
2018-10-04T23:59:07.285Z,5.35
